Thursday, March 05, 2015
00:14 UTC
  |  Log In   |  Register Free
Airport Search:

Indiana County/Jimmy Stewart Fld/ Airport
(KIDI)

Indiana County/Jimmy Stewart Fld/ Airport Diagram
No Airport Diagram Available

FAA data valid effective January 08, 2015 - March 05, 2015 (unless otherwise noted).

 
 
 
 
 
 
 
 
 
 
 
 
 
 

Current Aviation Weather for Indiana County/Jimmy Stewart Fld/ Airport (KIDI)

The most recent METAR observation for KIDI was updated at: 0009
METAR Summary (Translated METAR)
KIDI
042355Z AUTO 27006KT 1SM BR OVC004 00/00 A2998 RMK A01
KJST
050001Z AUTO 27006KT 1 1/2SM -SN BR OVC002 M01/M01 A2988 RMK AO2 P0000 T10061011
(22.7 nm SE from KIDI)
KLBE
042352Z 00000KT 1 1/4SM -SN OVC003 00/00 A2997
(25.5 nm SW from KIDI)
TAF Summary (Translated TAF)
KJST
(22.7 nm SE from KIDI)
042220Z 0422/0518 28012KT 4SM -SN BR OVC003 TEMPO 0422/0424 1SM -SN OVC003 FM050000 31012G18KT 1SM -SN OVC003 FM051500 31008KT P6SM OVC025
KLBE
(25.5 nm SW from KIDI)
041726Z 0418/0518 31005KT 3SM BR OVC005 FM042200 32008KT 3SM -SN BR OVC008 FM050600 32007KT 1SM -SN BR OVC008 FM051200 33006KT 3SM -SN BR OVC010 FM051500 34006KT 4SM -SN OVC015
  Airport Weather Conditions for KIDI

 Current Weather at IDI
32° F
Fog
West winds at 3.5 mph
IDI NOAA Radar

Pressure: 29.93 in
Humidity: 100%
Wind: West at 3.5 MPH (3 KT)
Dew Point: 32.0°F
Visibility: 0.50 mi


Airport Weather Forecast for KIDI

Translated METAR and TAF for KIDI
Translated METAR for KIDI (0014 UTC 05 March 2015)
found at http://aviationweather.gov/adds/metars/
 
METAR text: KIDI 042355Z AUTO 27006KT 1SM BR OVC004 00/00 A2998 RMK A01
Conditions at: KIDI (INDIANA/STEWART , PA, US) observed 2355 UTC 04 March 2015
Temperature: 0.0°C (32°F)
Dewpoint: 0.0°C (32°F) [RH = 100%]
Pressure (altimeter): 29.98 inches Hg (1015.3 mb)
Winds: from the W (270 degrees) at 7 MPH (6 knots; 3.1 m/s)
Visibility: 1.00 miles (1.61 km)
Ceiling: 400 feet AGL
Clouds: overcast cloud deck at 400 feet AGL
Weather: BR  (mist)
Translated TAF for KIDI

There is no translated TAF available for this airport

Find All Airport Services Find A Hotel Find A Rental Car Find A Golf Course Find A Restaurant $100 Hamburger



FBO's on the Field
FBO Company Facility Photos Services Transportation Aviation Fuel Prices: Prices include tax
Catering Weather Repair Courtesy Rental Type 100LL JetA JetA+ MOGAS 8087
 
Indiana County Jimmy Stewart Airport

Currently rated 5 by 1 person
FS:Phillips 66
Last Updated: Feb-12
Login to update fuel prices
SS:
Contact Indiana County Jimmy Stewart AirportMore FBO Information
 
Add another FBO Facility Photos Catering Weather Repair Courtesy Rental Type 100LL JetA JetA+ MOGAS 8087
Services Transportation Aviation Fuel Prices: Prices include tax


model-print
model-print
model-print
model-print